sensor_id;sensor_type;location;lat;lon;timestamp;pressure;altitude;pressure_sealevel;temperature;humidity
42067;BME280;27734;47.028;28.820;2023-05-20T00:01:25;100818.44;;;18.88;53.76
42067;BME280;27734;47.028;28.820;2023-05-20T00:03:53;100825.55;;;18.89;53.50
42067;BME280;27734;47.028;28.820;2023-05-20T00:06:22;100819.36;;;18.90;53.00
42067;BME280;27734;47.028;28.820;2023-05-20T00:08:50;100818.46;;;18.91;54.02
42067;BME280;27734;47.028;28.820;2023-05-20T00:11:19;100814.05;;;18.90;53.79
42067;BME280;27734;47.028;28.820;2023-05-20T00:13:48;100815.80;;;18.90;54.04
42067;BME280;27734;47.028;28.820;2023-05-20T00:16:17;100822.00;;;18.87;53.89
42067;BME280;27734;47.028;28.820;2023-05-20T00:18:45;100820.20;;;18.86;53.81
42067;BME280;27734;47.028;28.820;2023-05-20T00:21:14;100816.69;;;18.87;54.04
42067;BME280;27734;47.028;28.820;2023-05-20T00:23:42;100817.56;;;18.88;54.17
42067;BME280;27734;47.028;28.820;2023-05-20T00:26:11;100811.37;;;18.87;54.08
42067;BME280;27734;47.028;28.820;2023-05-20T00:28:40;100818.43;;;18.86;54.40
42067;BME280;27734;47.028;28.820;2023-05-20T00:31:08;100818.42;;;18.85;53.96
42067;BME280;27734;47.028;28.820;2023-05-20T00:33:37;100813.05;;;18.83;54.95
42067;BME280;27734;47.028;28.820;2023-05-20T00:36:06;100805.99;;;18.84;54.64
42067;BME280;27734;47.028;28.820;2023-05-20T00:38:35;100811.31;;;18.84;54.51
42067;BME280;27734;47.028;28.820;2023-05-20T00:41:03;100812.22;;;18.84;54.71
42067;BME280;27734;47.028;28.820;2023-05-20T00:43:32;100803.34;;;18.84;55.18
42067;BME280;27734;47.028;28.820;2023-05-20T00:46:01;100799.77;;;18.83;54.76
42067;BME280;27734;47.028;28.820;2023-05-20T00:48:34;100797.09;;;18.82;54.66
42067;BME280;27734;47.028;28.820;2023-05-20T00:51:07;100801.53;;;18.81;55.48
42067;BME280;27734;47.028;28.820;2023-05-20T00:53:36;100797.08;;;18.79;55.05
42067;BME280;27734;47.028;28.820;2023-05-20T00:56:07;100793.54;;;18.78;54.98
42067;BME280;27734;47.028;28.820;2023-05-20T00:58:37;100797.97;;;18.78;55.63
42067;BME280;27734;47.028;28.820;2023-05-20T01:01:06;100802.38;;;18.77;55.25
42067;BME280;27734;47.028;28.820;2023-05-20T01:03:34;100801.52;;;18.78;55.42
42067;BME280;27734;47.028;28.820;2023-05-20T01:06:03;100805.96;;;18.79;55.28
42067;BME280;27734;47.028;28.820;2023-05-20T01:08:32;100802.39;;;18.79;55.03
42067;BME280;27734;47.028;28.820;2023-05-20T01:11:07;100804.19;;;18.80;55.18
42067;BME280;27734;47.028;28.820;2023-05-20T01:13:42;100802.38;;;18.77;55.44
42067;BME280;27734;47.028;28.820;2023-05-20T01:16:13;100807.70;;;18.77;55.64
42067;BME280;27734;47.028;28.820;2023-05-20T01:18:46;100802.37;;;18.76;55.33
42067;BME280;27734;47.028;28.820;2023-05-20T01:21:17;100797.95;;;18.75;55.99
42067;BME280;27734;47.028;28.820;2023-05-20T01:23:46;100804.14;;;18.74;55.96
42067;BME280;27734;47.028;28.820;2023-05-20T01:26:14;100799.69;;;18.73;55.46
42067;BME280;27734;47.028;28.820;2023-05-20T01:28:44;100809.45;;;18.74;56.15
42067;BME280;27734;47.028;28.820;2023-05-20T01:31:17;100804.99;;;18.71;55.86
42067;BME280;27734;47.028;28.820;2023-05-20T01:33:50;100802.33;;;18.69;56.11
42067;BME280;27734;47.028;28.820;2023-05-20T01:36:21;100812.09;;;18.71;56.15
42067;BME280;27734;47.028;28.820;2023-05-20T01:38:50;100804.97;;;18.68;56.19
42067;BME280;27734;47.028;28.820;2023-05-20T01:41:20;100801.42;;;18.66;55.74
42067;BME280;27734;47.028;28.820;2023-05-20T01:43:52;100802.28;;;18.63;56.08
42067;BME280;27734;47.028;28.820;2023-05-20T01:46:22;100800.52;;;18.62;56.64
42067;BME280;27734;47.028;28.820;2023-05-20T01:48:51;100805.81;;;18.59;56.04
42067;BME280;27734;47.028;28.820;2023-05-20T01:51:19;100796.92;;;18.57;56.52
42067;BME280;27734;47.028;28.820;2023-05-20T01:53:48;100808.45;;;18.56;56.73
42067;BME280;27734;47.028;28.820;2023-05-20T01:56:16;100806.66;;;18.55;56.70
42067;BME280;27734;47.028;28.820;2023-05-20T01:58:45;100814.62;;;18.55;56.85
42067;BME280;27734;47.028;28.820;2023-05-20T02:01:14;100815.51;;;18.56;56.79
42067;BME280;27734;47.028;28.820;2023-05-20T02:03:44;100812.84;;;18.54;56.95
42067;BME280;27734;47.028;28.820;2023-05-20T02:06:12;100815.47;;;18.51;56.92
42067;BME280;27734;47.028;28.820;2023-05-20T02:08:41;100819.02;;;18.48;56.94
42067;BME280;27734;47.028;28.820;2023-05-20T02:11:09;100821.64;;;18.45;57.42
42067;BME280;27734;47.028;28.820;2023-05-20T02:13:38;100824.27;;;18.42;57.21
42067;BME280;27734;47.028;28.820;2023-05-20T02:16:07;100818.05;;;18.39;57.36
42067;BME280;27734;47.028;28.820;2023-05-20T02:18:36;100812.72;;;18.36;57.53
42067;BME280;27734;47.028;28.820;2023-05-20T02:21:05;100820.66;;;18.32;57.54
42067;BME280;27734;47.028;28.820;2023-05-20T02:23:34;100821.51;;;18.30;57.74
42067;BME280;27734;47.028;28.820;2023-05-20T02:26:03;100821.48;;;18.28;57.62
42067;BME280;27734;47.028;28.820;2023-05-20T02:28:31;100814.38;;;18.26;57.84
42067;BME280;27734;47.028;28.820;2023-05-20T02:31:00;100820.58;;;18.25;58.02
42067;BME280;27734;47.028;28.820;2023-05-20T02:33:32;100821.44;;;18.22;58.17
42067;BME280;27734;47.028;28.820;2023-05-20T02:36:01;100816.98;;;18.21;58.04
42067;BME280;27734;47.028;28.820;2023-05-20T02:38:29;100823.20;;;18.20;58.59
42067;BME280;27734;47.028;28.820;2023-05-20T02:40:59;100819.63;;;18.20;58.28
42067;BME280;27734;47.028;28.820;2023-05-20T02:43:27;100823.20;;;18.20;58.82
42067;BME280;27734;47.028;28.820;2023-05-20T02:45:56;100828.52;;;18.22;58.66
42067;BME280;27734;47.028;28.820;2023-05-20T02:48:24;100833.85;;;18.23;58.77
42067;BME280;27734;47.028;28.820;2023-05-20T02:50:54;100832.95;;;18.24;58.66
42067;BME280;27734;47.028;28.820;2023-05-20T02:53:22;100832.98;;;18.27;59.17
42067;BME280;27734;47.028;28.820;2023-05-20T02:55:51;100836.56;;;18.29;58.67
42067;BME280;27734;47.028;28.820;2023-05-20T02:58:19;100841.91;;;18.32;59.00
42067;BME280;27734;47.028;28.820;2023-05-20T03:00:53;100838.35;;;18.33;58.97
42067;BME280;27734;47.028;28.820;2023-05-20T03:03:22;100843.68;;;18.35;59.25
42067;BME280;27734;47.028;28.820;2023-05-20T03:05:51;100843.68;;;18.35;58.57
42067;BME280;27734;47.028;28.820;2023-05-20T03:08:21;100840.16;;;18.36;58.97
42067;BME280;27734;47.028;28.820;2023-05-20T03:10:50;100839.31;;;18.39;58.95
42067;BME280;27734;47.028;28.820;2023-05-20T03:13:18;100838.39;;;18.38;58.97
42067;BME280;27734;47.028;28.820;2023-05-20T03:15:47;100841.97;;;18.39;59.17
42067;BME280;27734;47.028;28.820;2023-05-20T03:18:15;100841.06;;;18.40;59.07
42067;BME280;27734;47.028;28.820;2023-05-20T03:20:45;100844.65;;;18.42;59.02
42067;BME280;27734;47.028;28.820;2023-05-20T03:23:14;100843.77;;;18.44;59.40
42067;BME280;27734;47.028;28.820;2023-05-20T03:25:42;100852.62;;;18.46;59.35
42067;BME280;27734;47.028;28.820;2023-05-20T03:28:11;100849.98;;;18.48;59.51
42067;BME280;27734;47.028;28.820;2023-05-20T03:30:40;100853.57;;;18.50;59.14
42067;BME280;27734;47.028;28.820;2023-05-20T03:33:08;100850.92;;;18.52;59.13
42067;BME280;27734;47.028;28.820;2023-05-20T03:35:37;100858.88;;;18.50;59.46
42067;BME280;27734;47.028;28.820;2023-05-20T03:38:06;100848.23;;;18.47;59.79
42067;BME280;27734;47.028;28.820;2023-05-20T03:40:35;100852.64;;;18.48;59.61
42067;BME280;27734;47.028;28.820;2023-05-20T03:43:04;100857.06;;;18.46;59.65
42067;BME280;27734;47.028;28.820;2023-05-20T03:45:32;100856.19;;;18.45;59.89
42067;BME280;27734;47.028;28.820;2023-05-20T03:48:05;100857.94;;;18.46;59.99
42067;BME280;27734;47.028;28.820;2023-05-20T03:50:35;100853.54;;;18.47;60.09
42067;BME280;27734;47.028;28.820;2023-05-20T03:53:04;100856.22;;;18.48;60.04
42067;BME280;27734;47.028;28.820;2023-05-20T03:55:39;100851.79;;;18.50;60.05
42067;BME280;27734;47.028;28.820;2023-05-20T03:58:07;100857.98;;;18.51;60.03
42067;BME280;27734;47.028;28.820;2023-05-20T04:00:36;100858.91;;;18.53;60.70
42067;BME280;27734;47.028;28.820;2023-05-20T04:03:04;100852.70;;;18.54;60.45
42067;BME280;27734;47.028;28.820;2023-05-20T04:05:33;100863.37;;;18.59;60.44
42067;BME280;27734;47.028;28.820;2023-05-20T04:08:04;100863.42;;;18.65;60.61
42067;BME280;27734;47.028;28.820;2023-05-20T04:10:33;100857.28;;;18.71;60.64
42067;BME280;27734;47.028;28.820;2023-05-20T04:13:01;100867.09;;;18.78;60.40
42067;BME280;27734;47.028;28.820;2023-05-20T04:15:30;100869.86;;;18.87;60.86
42067;BME280;27734;47.028;28.820;2023-05-20T04:17:59;100869.92;;;18.95;60.90
42067;BME280;27734;47.028;28.820;2023-05-20T04:20:28;100874.37;;;19.02;60.73
42067;BME280;27734;47.028;28.820;2023-05-20T04:22:58;100870.00;;;19.12;60.54
42067;BME280;27734;47.028;28.820;2023-05-20T04:25:26;100871.83;;;19.19;60.61
42067;BME280;27734;47.028;28.820;2023-05-20T04:27:55;100878.98;;;19.26;61.03
42067;BME280;27734;47.028;28.820;2023-05-20T04:30:24;100868.38;;;19.34;60.70
42067;BME280;27734;47.028;28.820;2023-05-20T04:32:53;100873.75;;;19.42;60.68
42067;BME280;27734;47.028;28.820;2023-05-20T04:35:22;100864.89;;;19.47;60.91
42067;BME280;27734;47.028;28.820;2023-05-20T04:37:53;100872.03;;;19.54;60.66
42067;BME280;27734;47.028;28.820;2023-05-20T04:40:22;100868.49;;;19.62;61.45
42067;BME280;27734;47.028;28.820;2023-05-20T04:42:51;100868.55;;;19.72;60.26
42067;BME280;27734;47.028;28.820;2023-05-20T04:45:19;100869.52;;;19.82;60.84
42067;BME280;27734;47.028;28.820;2023-05-20T04:47:50;100868.65;;;19.92;60.99
42067;BME280;27734;47.028;28.820;2023-05-20T04:50:20;100869.55;;;20.02;61.15
42067;BME280;27734;47.028;28.820;2023-05-20T04:52:49;100864.25;;;20.10;60.35
42067;BME280;27734;47.028;28.820;2023-05-20T04:55:18;100858.05;;;20.16;60.16
42067;BME280;27734;47.028;28.820;2023-05-20T04:57:48;100867.85;;;20.23;60.83
42067;BME280;27734;47.028;28.820;2023-05-20T05:00:16;100864.30;;;20.33;61.09
42067;BME280;27734;47.028;28.820;2023-05-20T05:02:45;100865.22;;;20.46;60.18
42067;BME280;27734;47.028;28.820;2023-05-20T05:05:14;100867.86;;;20.57;60.83
42067;BME280;27734;47.028;28.820;2023-05-20T05:07:43;100869.66;;;20.64;60.05
42067;BME280;27734;47.028;28.820;2023-05-20T05:10:13;100876.81;;;20.71;60.36
42067;BME280;27734;47.028;28.820;2023-05-20T05:12:42;100874.14;;;20.77;60.03
42067;BME280;27734;47.028;28.820;2023-05-20T05:15:11;100872.35;;;20.86;59.74
42067;BME280;27734;47.028;28.820;2023-05-20T05:17:39;100877.67;;;21.01;60.34
42067;BME280;27734;47.028;28.820;2023-05-20T05:20:10;100874.08;;;21.14;59.62
42067;BME280;27734;47.028;28.820;2023-05-20T05:22:39;100871.37;;;21.28;59.66
42067;BME280;27734;47.028;28.820;2023-05-20T05:25:10;100875.81;;;21.39;59.91
42067;BME280;27734;47.028;28.820;2023-05-20T05:27:39;100874.00;;;21.48;58.94
42067;BME280;27734;47.028;28.820;2023-05-20T05:30:09;100868.66;;;21.59;59.12
42067;BME280;27734;47.028;28.820;2023-05-20T05:32:38;100866.81;;;21.72;59.15
42067;BME280;27734;47.028;28.820;2023-05-20T05:35:09;100870.35;;;21.82;59.09
42067;BME280;27734;47.028;28.820;2023-05-20T05:37:38;100870.33;;;21.86;58.46
42067;BME280;27734;47.028;28.820;2023-05-20T05:40:08;100873.88;;;21.85;58.12
42067;BME280;27734;47.028;28.820;2023-05-20T05:42:37;100871.20;;;21.88;57.51
42067;BME280;27734;47.028;28.820;2023-05-20T05:45:09;100872.06;;;21.90;57.97
42067;BME280;27734;47.028;28.820;2023-05-20T05:47:37;100880.98;;;21.93;57.91
42067;BME280;27734;47.028;28.820;2023-05-20T05:50:07;100880.08;;;21.90;57.72
42067;BME280;27734;47.028;28.820;2023-05-20T05:52:37;100876.55;;;21.85;57.85
42067;BME280;27734;47.028;28.820;2023-05-20T05:55:08;100881.89;;;21.87;57.75
42067;BME280;27734;47.028;28.820;2023-05-20T05:57:38;100891.73;;;21.80;56.96
42067;BME280;27734;47.028;28.820;2023-05-20T06:00:09;100883.72;;;21.77;57.49
42067;BME280;27734;47.028;28.820;2023-05-20T06:02:47;100884.59;;;21.79;57.48
42067;BME280;27734;47.028;28.820;2023-05-20T06:05:23;100880.11;;;21.84;57.31
42067;BME280;27734;47.028;28.820;2023-05-20T06:07:54;100883.69;;;21.85;57.42
42067;BME280;27734;47.028;28.820;2023-05-20T06:10:23;100879.23;;;21.85;57.05
42067;BME280;27734;47.028;28.820;2023-05-20T06:12:51;100880.11;;;21.86;56.69
42067;BME280;27734;47.028;28.820;2023-05-20T06:15:20;100869.44;;;21.83;56.63
42067;BME280;27734;47.028;28.820;2023-05-20T06:17:49;100871.23;;;21.81;56.79
42067;BME280;27734;47.028;28.820;2023-05-20T06:20:17;100865.86;;;21.88;56.28
42067;BME280;27734;47.028;28.820;2023-05-20T06:22:52;100868.47;;;22.01;56.16
42067;BME280;27734;47.028;28.820;2023-05-20T06:25:21;100868.41;;;22.10;55.95
42067;BME280;27734;47.028;28.820;2023-05-20T06:27:51;100865.66;;;22.22;55.99
42067;BME280;27734;47.028;28.820;2023-05-20T06:30:23;100867.37;;;22.34;55.83
42067;BME280;27734;47.028;28.820;2023-05-20T06:32:52;100874.43;;;22.48;56.04
42067;BME280;27734;47.028;28.820;2023-05-20T06:35:20;100864.52;;;22.60;56.02
42067;BME280;27734;47.028;28.820;2023-05-20T06:37:49;100870.67;;;22.69;55.51
42067;BME280;27734;47.028;28.820;2023-05-20T06:40:18;100862.59;;;22.75;55.10
42067;BME280;27734;47.028;28.820;2023-05-20T06:42:46;100864.33;;;22.82;54.84
42067;BME280;27734;47.028;28.820;2023-05-20T06:45:15;100867.78;;;22.93;54.87
42067;BME280;27734;47.028;28.820;2023-05-20T06:47:53;100858.78;;;23.04;54.41
42067;BME280;27734;47.028;28.820;2023-05-20T06:50:21;100868.50;;;23.17;54.15
42067;BME280;27734;47.028;28.820;2023-05-20T06:52:51;100863.02;;;23.26;54.17
42067;BME280;27734;47.028;28.820;2023-05-20T06:55:19;100868.25;;;23.37;53.85
42067;BME280;27734;47.028;28.820;2023-05-20T06:57:48;100870.02;;;23.40;52.89
42067;BME280;27734;47.028;28.820;2023-05-20T07:00:18;100872.75;;;23.35;53.09
42067;BME280;27734;47.028;28.820;2023-05-20T07:02:47;100866.44;;;23.42;52.86
42067;BME280;27734;47.028;28.820;2023-05-20T07:05:16;100864.56;;;23.49;52.46
42067;BME280;27734;47.028;28.820;2023-05-20T07:07:46;100861.72;;;23.63;52.25
42067;BME280;27734;47.028;28.820;2023-05-20T07:10:16;100864.27;;;23.74;52.40
42067;BME280;27734;47.028;28.820;2023-05-20T07:12:44;100863.25;;;23.84;52.23
42067;BME280;27734;47.028;28.820;2023-05-20T07:15:13;100861.29;;;23.98;52.16
42067;BME280;27734;47.028;28.820;2023-05-20T07:17:42;100866.41;;;24.15;51.80
42067;BME280;27734;47.028;28.820;2023-05-20T07:20:11;100865.34;;;24.26;51.19
42067;BME280;27734;47.028;28.820;2023-05-20T07:22:39;100867.72;;;24.46;50.75
42067;BME280;27734;47.028;28.820;2023-05-20T07:25:12;100871.05;;;24.63;50.65
42067;BME280;27734;47.028;28.820;2023-05-20T07:27:41;100863.66;;;24.76;50.34
42067;BME280;27734;47.028;28.820;2023-05-20T07:30:10;100855.34;;;24.91;50.11
42067;BME280;27734;47.028;28.820;2023-05-20T07:32:40;100865.80;;;25.07;49.51
42067;BME280;27734;47.028;28.820;2023-05-20T07:35:10;100857.48;;;25.21;48.64
42067;BME280;27734;47.028;28.820;2023-05-20T07:37:38;100844.64;;;25.38;49.04
42067;BME280;27734;47.028;28.820;2023-05-20T07:40:09;100851.38;;;25.59;48.61
42067;BME280;27734;47.028;28.820;2023-05-20T07:42:39;100844.88;;;25.71;48.27
42067;BME280;27734;47.028;28.820;2023-05-20T07:45:09;100845.69;;;25.75;48.24
42067;BME280;27734;47.028;28.820;2023-05-20T07:47:38;100844.52;;;25.87;47.96
42067;BME280;27734;47.028;28.820;2023-05-20T07:50:08;100853.91;;;26.09;47.36
42067;BME280;27734;47.028;28.820;2023-05-20T07:52:38;100864.27;;;26.26;46.53
42067;BME280;27734;47.028;28.820;2023-05-20T07:55:07;100854.39;;;26.27;47.45
42067;BME280;27734;47.028;28.820;2023-05-20T07:57:36;100855.08;;;26.35;46.84
42067;BME280;27734;47.028;28.820;2023-05-20T08:00:09;100854.82;;;26.46;46.29
42067;BME280;27734;47.028;28.820;2023-05-20T08:02:44;100858.88;;;26.64;46.17
42067;BME280;27734;47.028;28.820;2023-05-20T08:05:15;100846.83;;;26.80;45.46
42067;BME280;27734;47.028;28.820;2023-05-20T08:07:44;100852.02;;;26.86;45.25
42067;BME280;27734;47.028;28.820;2023-05-20T08:10:13;100850.23;;;26.87;45.26
42067;BME280;27734;47.028;28.820;2023-05-20T08:12:43;100844.48;;;27.01;44.74
42067;BME280;27734;47.028;28.820;2023-05-20T08:15:12;100851.20;;;27.17;44.93
42067;BME280;27734;47.028;28.820;2023-05-20T08:17:41;100835.59;;;27.32;43.83
42067;BME280;27734;47.028;28.820;2023-05-20T08:20:12;100834.38;;;27.42;44.38
42067;BME280;27734;47.028;28.820;2023-05-20T08:22:41;100844.11;;;27.48;43.42
42067;BME280;27734;47.028;28.820;2023-05-20T08:25:09;100844.94;;;27.50;42.56
42067;BME280;27734;47.028;28.820;2023-05-20T08:27:38;100840.80;;;27.38;43.39
42067;BME280;27734;47.028;28.820;2023-05-20T08:30:10;100841.03;;;27.29;43.07
42067;BME280;27734;47.028;28.820;2023-05-20T08:32:38;100851.45;;;27.08;42.59
42067;BME280;27734;47.028;28.820;2023-05-20T08:35:08;100844.57;;;26.98;42.66
42067;BME280;27734;47.028;28.820;2023-05-20T08:37:37;100851.78;;;26.96;42.64
42067;BME280;27734;47.028;28.820;2023-05-20T08:40:08;100849.12;;;26.94;42.73
42067;BME280;27734;47.028;28.820;2023-05-20T08:42:40;100851.83;;;26.94;42.21
42067;BME280;27734;47.028;28.820;2023-05-20T08:45:11;100844.61;;;26.96;41.93
42067;BME280;27734;47.028;28.820;2023-05-20T08:47:43;100847.34;;;26.95;42.10
42067;BME280;27734;47.028;28.820;2023-05-20T08:50:12;100843.78;;;26.93;41.47
42067;BME280;27734;47.028;28.820;2023-05-20T08:52:43;100846.64;;;26.86;41.63
42067;BME280;27734;47.028;28.820;2023-05-20T08:55:16;100848.50;;;26.84;41.19
42067;BME280;27734;47.028;28.820;2023-05-20T08:57:50;100846.13;;;26.72;41.24
42067;BME280;27734;47.028;28.820;2023-05-20T09:00:19;100845.41;;;26.64;41.52
42067;BME280;27734;47.028;28.820;2023-05-20T09:02:50;100838.33;;;26.60;41.14
42067;BME280;27734;47.028;28.820;2023-05-20T09:05:18;100837.42;;;26.61;40.82
42067;BME280;27734;47.028;28.820;2023-05-20T09:07:48;100828.44;;;26.62;40.33
42067;BME280;27734;47.028;28.820;2023-05-20T09:10:17;100834.64;;;26.65;39.25
42067;BME280;27734;47.028;28.820;2023-05-20T09:12:46;100833.66;;;26.69;39.34
42067;BME280;27734;47.028;28.820;2023-05-20T09:15:14;100828.11;;;26.76;39.25
42067;BME280;27734;47.028;28.820;2023-05-20T09:17:43;100828.41;;;26.98;39.41
42067;BME280;27734;47.028;28.820;2023-05-20T09:20:12;100819.61;;;27.24;39.22
42067;BME280;27734;47.028;28.820;2023-05-20T09:22:41;100824.56;;;27.39;38.55
42067;BME280;27734;47.028;28.820;2023-05-20T09:25:10;100821.55;;;27.50;38.60
42067;BME280;27734;47.028;28.820;2023-05-20T09:27:40;100810.59;;;27.56;37.92
42067;BME280;27734;47.028;28.820;2023-05-20T09:30:10;100821.19;;;27.62;37.97
42067;BME280;27734;47.028;28.820;2023-05-20T09:32:39;100810.50;;;27.59;36.55
42067;BME280;27734;47.028;28.820;2023-05-20T09:35:12;100807.53;;;27.69;36.59
42067;BME280;27734;47.028;28.820;2023-05-20T09:37:42;100807.66;;;27.64;36.80
42067;BME280;27734;47.028;28.820;2023-05-20T09:40:15;100798.28;;;27.77;36.26
42067;BME280;27734;47.028;28.820;2023-05-20T09:42:53;100805.59;;;28.04;36.79
42067;BME280;27734;47.028;28.820;2023-05-20T09:45:22;100789.11;;;28.13;36.29
42067;BME280;27734;47.028;28.820;2023-05-20T09:47:52;100797.92;;;28.18;36.69
42067;BME280;27734;47.028;28.820;2023-05-20T09:50:22;100790.75;;;28.17;36.51
42067;BME280;27734;47.028;28.820;2023-05-20T09:52:52;100785.66;;;28.08;36.08
42067;BME280;27734;47.028;28.820;2023-05-20T09:55:22;100794.00;;;28.00;36.27
42067;BME280;27734;47.028;28.820;2023-05-20T09:57:53;100794.28;;;27.91;36.29
42067;BME280;27734;47.028;28.820;2023-05-20T10:00:22;100793.08;;;27.71;35.10
42067;BME280;27734;47.028;28.820;2023-05-20T10:02:51;100785.47;;;27.56;35.21
42067;BME280;27734;47.028;28.820;2023-05-20T10:05:21;100787.38;;;27.52;35.68
42067;BME280;27734;47.028;28.820;2023-05-20T10:08:20;100789.08;;;27.55;35.71
42067;BME280;27734;47.028;28.820;2023-05-20T10:10:55;100780.99;;;27.55;35.52
42067;BME280;27734;47.028;28.820;2023-05-20T10:13:40;100772.17;;;27.50;35.22
42067;BME280;27734;47.028;28.820;2023-05-20T10:16:30;100781.53;;;27.38;35.11
42067;BME280;27734;47.028;28.820;2023-05-20T10:19:09;100780.63;;;27.37;35.54
42067;BME280;27734;47.028;28.820;2023-05-20T10:21:39;100785.14;;;27.37;35.35
42067;BME280;27734;47.028;28.820;2023-05-20T10:24:09;100783.50;;;27.31;35.65
42067;BME280;27734;47.028;28.820;2023-05-20T10:26:39;100786.47;;;27.20;35.63
42067;BME280;27734;47.028;28.820;2023-05-20T10:29:17;100786.64;;;27.14;35.58
42067;BME280;27734;47.028;28.820;2023-05-20T10:31:49;100784.25;;;27.03;35.68
42067;BME280;27734;47.028;28.820;2023-05-20T10:34:19;100782.59;;;26.99;35.71
42067;BME280;27734;47.028;28.820;2023-05-20T10:36:57;100789.77;;;26.99;35.85
42067;BME280;27734;47.028;28.820;2023-05-20T10:39:28;100780.73;;;27.01;35.64
42067;BME280;27734;47.028;28.820;2023-05-20T10:42:07;100775.13;;;27.09;36.16
42067;BME280;27734;47.028;28.820;2023-05-20T10:44:44;100779.42;;;27.16;36.02
42067;BME280;27734;47.028;28.820;2023-05-20T10:47:13;100774.73;;;27.23;35.70
42067;BME280;27734;47.028;28.820;2023-05-20T10:49:44;100778.06;;;27.33;36.22
42067;BME280;27734;47.028;28.820;2023-05-20T10:52:13;100774.91;;;27.48;36.05
42067;BME280;27734;47.028;28.820;2023-05-20T10:54:44;100770.74;;;27.68;36.17
42067;BME280;27734;47.028;28.820;2023-05-20T10:57:13;100781.05;;;27.83;36.31
42067;BME280;27734;47.028;28.820;2023-05-20T10:59:42;100776.07;;;27.99;35.85
42067;BME280;27734;47.028;28.820;2023-05-20T11:02:10;100773.28;;;28.29;35.85
42067;BME280;27734;47.028;28.820;2023-05-20T11:04:42;100770.33;;;28.63;35.37
42067;BME280;27734;47.028;28.820;2023-05-20T11:07:11;100755.14;;;28.86;35.06
42067;BME280;27734;47.028;28.820;2023-05-20T11:09:49;100756.56;;;28.71;34.38
42067;BME280;27734;47.028;28.820;2023-05-20T11:12:17;100759.72;;;28.57;34.43
42067;BME280;27734;47.028;28.820;2023-05-20T11:14:47;100761.97;;;28.44;34.32
42067;BME280;27734;47.028;28.820;2023-05-20T11:17:16;100760.56;;;28.32;34.07
42067;BME280;27734;47.028;28.820;2023-05-20T11:19:46;100760.88;;;28.23;34.23
42067;BME280;27734;47.028;28.820;2023-05-20T11:22:15;100766.11;;;28.28;33.68
42067;BME280;27734;47.028;28.820;2023-05-20T11:24:43;100762.59;;;28.26;33.02
42067;BME280;27734;47.028;28.820;2023-05-20T11:27:12;100755.73;;;28.15;32.61
42067;BME280;27734;47.028;28.820;2023-05-20T11:29:41;100757.77;;;28.09;33.04
42067;BME280;27734;47.028;28.820;2023-05-20T11:32:10;100747.84;;;28.09;33.24
42067;BME280;27734;47.028;28.820;2023-05-20T11:34:39;100744.17;;;28.12;32.97
42067;BME280;27734;47.028;28.820;2023-05-20T11:37:10;100742.45;;;28.09;33.03
42067;BME280;27734;47.028;28.820;2023-05-20T11:39:40;100737.31;;;28.02;32.58
42067;BME280;27734;47.028;28.820;2023-05-20T11:42:08;100729.44;;;27.94;32.34
42067;BME280;27734;47.028;28.820;2023-05-20T11:44:42;100731.31;;;27.92;32.64
42067;BME280;27734;47.028;28.820;2023-05-20T11:47:11;100740.27;;;27.92;32.80
42067;BME280;27734;47.028;28.820;2023-05-20T11:49:40;100735.88;;;27.90;32.69
42067;BME280;27734;47.028;28.820;2023-05-20T11:52:09;100739.35;;;27.93;32.17
42067;BME280;27734;47.028;28.820;2023-05-20T11:54:39;100742.91;;;27.95;32.22
42067;BME280;27734;47.028;28.820;2023-05-20T11:57:08;100743.10;;;27.89;31.27
42067;BME280;27734;47.028;28.820;2023-05-20T11:59:38;100740.75;;;27.78;30.88
42067;BME280;27734;47.028;28.820;2023-05-20T12:02:07;100737.45;;;27.97;31.27
42067;BME280;27734;47.028;28.820;2023-05-20T12:04:36;100734.74;;;28.25;31.45
42067;BME280;27734;47.028;28.820;2023-05-20T12:07:04;100746.65;;;28.45;31.25
42067;BME280;27734;47.028;28.820;2023-05-20T12:09:36;100735.75;;;28.48;30.19
42067;BME280;27734;47.028;28.820;2023-05-20T12:12:05;100737.63;;;28.46;30.70
42067;BME280;27734;47.028;28.820;2023-05-20T12:14:34;100734.66;;;28.54;31.32
42067;BME280;27734;47.028;28.820;2023-05-20T12:17:02;100729.08;;;28.60;30.40
42067;BME280;27734;47.028;28.820;2023-05-20T12:22:21;100713.25;;;28.74;30.91
42067;BME280;27734;47.028;28.820;2023-05-20T12:24:49;100717.78;;;28.74;30.72
42067;BME280;27734;47.028;28.820;2023-05-20T12:27:18;100722.41;;;28.43;29.21
42067;BME280;27734;47.028;28.820;2023-05-20T12:29:46;100718.61;;;28.24;29.04
42067;BME280;27734;47.028;28.820;2023-05-20T12:32:15;100713.69;;;28.10;29.38
42067;BME280;27734;47.028;28.820;2023-05-20T12:34:44;100706.52;;;27.80;27.44
42067;BME280;27734;47.028;28.820;2023-05-20T12:37:12;100703.11;;;27.75;26.69
42067;BME280;27734;47.028;28.820;2023-05-20T12:39:41;100707.69;;;27.72;27.10
42067;BME280;27734;47.028;28.820;2023-05-20T12:42:09;100694.97;;;27.77;26.58
42067;BME280;27734;47.028;28.820;2023-05-20T12:44:38;100695.34;;;27.93;26.78
42067;BME280;27734;47.028;28.820;2023-05-20T12:47:06;100695.22;;;27.97;26.17
42067;BME280;27734;47.028;28.820;2023-05-20T12:49:35;100696.70;;;28.06;26.73
42067;BME280;27734;47.028;28.820;2023-05-20T12:52:04;100682.20;;;28.36;27.02
42067;BME280;27734;47.028;28.820;2023-05-20T12:54:33;100673.09;;;28.65;26.99
42067;BME280;27734;47.028;28.820;2023-05-20T12:57:01;100682.34;;;28.83;27.00